createdAt,value
2018-11-10T00:02:04.024Z,26.00
2018-11-10T00:04:34.972Z,26.20
2018-11-10T00:07:06.893Z,25.70
2018-11-10T00:09:38.290Z,26.70
2018-11-10T00:12:09.857Z,30.87
2018-11-10T00:14:43.269Z,28.07
2018-11-10T00:17:16.262Z,27.97
2018-11-10T00:19:49.795Z,25.47
2018-11-10T00:22:21.764Z,26.03
2018-11-10T00:24:54.267Z,26.30
2018-11-10T00:27:27.608Z,23.13
2018-11-10T00:30:01.065Z,24.73
2018-11-10T00:32:35.587Z,26.17
2018-11-10T00:35:08.032Z,26.80
2018-11-10T00:37:40.485Z,26.40
2018-11-10T00:40:16.950Z,25.30
2018-11-10T00:42:49.501Z,24.97
2018-11-10T00:45:21.806Z,22.90
2018-11-10T00:47:53.331Z,24.33
2018-11-10T00:50:26.360Z,25.17
2018-11-10T00:52:59.110Z,25.27
2018-11-10T00:55:33.937Z,27.40
2018-11-10T00:58:07.169Z,24.93
2018-11-10T01:00:40.157Z,29.20
2018-11-10T01:03:12.603Z,26.60
2018-11-10T01:05:45.368Z,24.37
2018-11-10T01:08:18.893Z,25.30
2018-11-10T01:10:52.375Z,25.80
2018-11-10T01:13:24.028Z,26.50
2018-11-10T01:15:55.999Z,23.97
2018-11-10T01:18:29.254Z,25.53
2018-11-10T01:21:02.829Z,27.23
2018-11-10T01:23:35.629Z,26.27
2018-11-10T01:26:09.998Z,26.93
2018-11-10T01:28:43.161Z,27.40
2018-11-10T01:31:18.380Z,28.17
2018-11-10T01:33:51.030Z,26.13
2018-11-10T01:36:23.669Z,29.80
2018-11-10T01:38:56.521Z,28.07
2018-11-10T01:41:29.475Z,25.97
2018-11-10T01:44:02.194Z,27.20
2018-11-10T01:46:34.353Z,30.60
2018-11-10T01:49:07.388Z,29.27
2018-11-10T01:51:39.938Z,26.73
2018-11-10T01:54:12.384Z,30.77
2018-11-10T01:56:44.220Z,28.80
2018-11-10T01:59:16.726Z,27.30
2018-11-10T02:01:49.199Z,28.23
2018-11-10T02:04:21.589Z,27.20
2018-11-10T02:06:54.330Z,28.70
2018-11-10T02:09:26.148Z,27.03
2018-11-10T02:11:59.193Z,26.40
2018-11-10T02:14:31.878Z,25.80
2018-11-10T02:17:04.326Z,25.67
2018-11-10T02:19:36.633Z,24.77
2018-11-10T02:22:09.682Z,26.97
2018-11-10T02:24:42.292Z,25.77
2018-11-10T02:27:20.397Z,25.63
2018-11-10T02:29:54.659Z,25.60
2018-11-10T02:32:28.276Z,25.37
2018-11-10T02:35:00.715Z,22.63
2018-11-10T02:37:34.194Z,26.00
2018-11-10T02:40:07.522Z,23.17
2018-11-10T02:42:40.900Z,22.70
2018-11-10T02:45:14.520Z,22.90
2018-11-10T02:47:47.643Z,25.10
2018-11-10T02:50:20.325Z,21.63
2018-11-10T02:52:52.909Z,23.50
2018-11-10T02:55:25.243Z,22.20
2018-11-10T02:57:56.811Z,20.17
2018-11-10T03:00:27.108Z,22.77
2018-11-10T03:02:57.273Z,21.70
2018-11-10T03:05:27.605Z,22.27
2018-11-10T03:07:58.969Z,21.70
2018-11-10T03:10:28.991Z,21.27
2018-11-10T03:12:59.792Z,20.70
2018-11-10T03:15:29.693Z,20.47
2018-11-10T03:17:59.583Z,20.10
2018-11-10T03:20:30.053Z,20.37
2018-11-10T03:22:59.843Z,19.27
2018-11-10T03:25:30.037Z,21.57
2018-11-10T03:27:59.809Z,19.47
2018-11-10T03:30:29.578Z,18.50
2018-11-10T03:35:29.593Z,19.30
2018-11-10T03:38:00.178Z,19.57
2018-11-10T03:40:30.610Z,18.57
2018-11-10T03:43:01.162Z,19.20
2018-11-10T03:45:31.618Z,18.37
2018-11-10T03:48:02.045Z,20.40
2018-11-10T03:50:32.160Z,20.50
2018-11-10T03:53:02.575Z,19.07
2018-11-10T03:55:32.984Z,19.10
2018-11-10T03:58:02.795Z,20.20
2018-11-10T04:00:33.161Z,19.10
2018-11-10T04:03:03.220Z,18.50
2018-11-10T04:05:34.138Z,18.90
2018-11-10T04:08:04.596Z,19.00
2018-11-10T04:10:34.478Z,20.97
2018-11-10T04:13:04.341Z,19.90
2018-11-10T04:15:35.045Z,21.20
2018-11-10T04:18:05.250Z,17.70
2018-11-10T04:20:35.897Z,19.77
2018-11-10T04:23:06.535Z,19.30
2018-11-10T04:25:36.728Z,19.17
2018-11-10T04:28:07.575Z,19.67
2018-11-10T04:30:39.555Z,20.60
2018-11-10T04:33:10.583Z,20.47
2018-11-10T04:35:41.800Z,20.73
2018-11-10T04:38:12.428Z,20.47
2018-11-10T04:40:43.633Z,17.07
2018-11-10T04:43:13.721Z,18.63
2018-11-10T04:45:46.957Z,18.60
2018-11-10T04:48:18.004Z,18.50
2018-11-10T04:50:48.457Z,18.73
2018-11-10T04:53:19.251Z,19.70
2018-11-10T04:55:49.917Z,20.13
2018-11-10T04:58:20.285Z,21.10
2018-11-10T05:00:51.047Z,21.70
2018-11-10T05:03:21.426Z,20.93
2018-11-10T05:05:51.694Z,21.70
2018-11-10T05:08:21.738Z,20.03
2018-11-10T05:10:56.506Z,19.40
2018-11-10T05:13:27.675Z,20.03
2018-11-10T05:15:58.610Z,21.43
2018-11-10T05:18:27.861Z,19.37
2018-11-10T05:21:01.661Z,22.30
2018-11-10T05:23:33.007Z,22.50
2018-11-10T05:26:03.092Z,19.83
2018-11-10T05:28:34.021Z,20.83
2018-11-10T05:31:04.746Z,21.97
2018-11-10T05:33:35.696Z,21.77
2018-11-10T05:36:07.513Z,22.50
2018-11-10T05:38:37.905Z,24.37
2018-11-10T05:41:08.144Z,23.20
2018-11-10T05:43:38.806Z,20.97
2018-11-10T05:46:10.662Z,23.60
2018-11-10T05:48:40.842Z,21.63
2018-11-10T05:51:11.350Z,22.27
2018-11-10T05:53:41.817Z,22.50
2018-11-10T05:56:13.678Z,24.07
2018-11-10T05:58:44.321Z,22.87
2018-11-10T06:01:15.075Z,23.40
2018-11-10T06:03:45.007Z,24.60
2018-11-10T06:06:16.355Z,22.80
2018-11-10T06:08:47.051Z,24.27
2018-11-10T06:11:17.237Z,23.23
2018-11-10T06:13:47.191Z,26.17
2018-11-10T06:16:17.921Z,23.97
2018-11-10T06:18:49.168Z,23.30
2018-11-10T06:21:21.651Z,22.80
2018-11-10T06:23:52.588Z,24.33
2018-11-10T06:26:23.256Z,25.03
2018-11-10T06:28:53.341Z,24.87
2018-11-10T06:31:25.681Z,23.30
2018-11-10T06:33:56.362Z,24.87
2018-11-10T06:36:27.607Z,24.00
2018-11-10T06:38:57.773Z,24.23
2018-11-10T06:41:29.280Z,25.17
2018-11-10T06:43:58.843Z,23.20
2018-11-10T06:46:29.270Z,24.53
2018-11-10T06:48:59.920Z,22.77
2018-11-10T06:51:30.256Z,23.93
2018-11-10T06:54:00.583Z,24.80
2018-11-10T06:56:30.906Z,24.30
2018-11-10T06:59:01.104Z,23.70
2018-11-10T07:01:33.412Z,25.57
2018-11-10T07:04:03.741Z,24.87
2018-11-10T07:06:34.766Z,25.80
2018-11-10T07:09:05.163Z,23.70
2018-11-10T07:11:35.660Z,23.80
2018-11-10T07:14:06.003Z,23.57
2018-11-10T07:16:38.097Z,24.97
2018-11-10T07:19:08.072Z,22.60
2018-11-10T07:21:39.877Z,21.93
2018-11-10T07:24:10.582Z,24.40
2018-11-10T07:26:42.087Z,24.70
2018-11-10T07:29:13.201Z,23.30
2018-11-10T07:31:44.644Z,24.60
2018-11-10T07:34:15.412Z,24.40
2018-11-10T07:36:47.901Z,26.33
2018-11-10T07:39:18.603Z,24.57
2018-11-10T07:41:48.939Z,23.27
2018-11-10T07:44:19.090Z,25.80
2018-11-10T07:46:49.674Z,24.00
2018-11-10T07:49:20.193Z,25.73
2018-11-10T07:51:51.263Z,24.83
2018-11-10T07:54:21.240Z,24.97
2018-11-10T07:56:51.573Z,25.03
2018-11-10T07:59:21.928Z,27.57
2018-11-10T08:01:52.498Z,27.00
2018-11-10T08:04:22.307Z,24.87
2018-11-10T08:06:53.593Z,27.10
2018-11-10T08:09:24.331Z,24.67
2018-11-10T08:11:55.151Z,29.83
2018-11-10T08:14:25.287Z,29.60
2018-11-10T08:16:56.645Z,26.03
2018-11-10T08:19:27.660Z,26.53
2018-11-10T08:21:59.058Z,28.80
2018-11-10T08:24:29.143Z,26.40
2018-11-10T08:27:00.300Z,31.93
2018-11-10T08:29:30.579Z,32.37
2018-11-10T08:32:02.328Z,30.60
2018-11-10T08:34:32.999Z,30.00
2018-11-10T08:37:04.336Z,31.23
2018-11-10T08:39:34.803Z,29.70
2018-11-10T08:42:05.875Z,31.87
2018-11-10T08:44:36.704Z,27.70
2018-11-10T08:47:08.156Z,31.90
2018-11-10T08:49:38.157Z,30.10
2018-11-10T08:52:10.396Z,29.87
2018-11-10T08:54:40.649Z,28.20
2018-11-10T08:57:11.264Z,30.67
2018-11-10T08:59:41.360Z,29.30
2018-11-10T09:02:12.826Z,30.87
2018-11-10T09:04:43.588Z,31.23
2018-11-10T09:07:14.045Z,30.20
2018-11-10T09:09:44.420Z,30.10
2018-11-10T09:12:14.902Z,30.97
2018-11-10T09:14:45.576Z,31.30
2018-11-10T09:17:16.385Z,33.23
2018-11-10T09:19:46.225Z,32.70
2018-11-10T09:22:18.038Z,32.70
2018-11-10T09:24:48.654Z,30.67
2018-11-10T09:27:20.073Z,29.97
2018-11-10T09:29:50.880Z,30.87
2018-11-10T09:32:21.772Z,32.03
2018-11-10T09:34:52.205Z,31.00
2018-11-10T09:37:24.354Z,29.07
2018-11-10T09:39:55.151Z,32.03
2018-11-10T09:42:26.067Z,28.73
2018-11-10T09:44:55.814Z,29.17
2018-11-10T09:47:26.602Z,27.00
2018-11-10T09:49:56.468Z,31.30
2018-11-10T09:52:26.350Z,29.13
2018-11-10T09:54:57.046Z,29.63
2018-11-10T09:57:27.938Z,28.83
2018-11-10T09:59:58.515Z,27.90
2018-11-10T10:02:29.755Z,28.20
2018-11-10T10:05:00.696Z,30.90
2018-11-10T10:07:32.233Z,29.50
2018-11-10T10:10:03.220Z,28.47
2018-11-10T10:12:34.010Z,29.27
2018-11-10T10:15:05.171Z,36.00
2018-11-10T10:17:35.973Z,50.00
2018-11-10T10:20:07.175Z,66.63
2018-11-10T10:22:38.171Z,95.70
2018-11-10T10:25:09.543Z,36.63
2018-11-10T10:27:41.110Z,31.10
2018-11-10T10:30:14.520Z,27.90
2018-11-10T10:32:46.268Z,26.00
2018-11-10T10:35:16.948Z,24.30
2018-11-10T10:37:48.875Z,26.07
2018-11-10T10:40:19.952Z,27.37
2018-11-10T10:42:50.877Z,26.83
2018-11-10T10:45:23.129Z,24.90
2018-11-10T10:47:54.971Z,23.63
2018-11-10T10:50:25.553Z,26.00
2018-11-10T10:52:56.906Z,24.80
2018-11-10T10:55:27.415Z,25.00
2018-11-10T10:58:00.252Z,23.70
2018-11-10T11:00:35.890Z,24.90
2018-11-10T11:03:11.150Z,23.10
2018-11-10T11:05:45.196Z,24.77
2018-11-10T11:08:16.090Z,24.43
2018-11-10T11:10:46.499Z,25.10
2018-11-10T11:13:18.140Z,25.20
2018-11-10T11:15:49.133Z,25.27
2018-11-10T11:18:20.579Z,25.03
2018-11-10T11:20:51.419Z,24.73
2018-11-10T11:23:21.973Z,23.77
2018-11-10T11:25:52.904Z,23.57
2018-11-10T11:28:24.016Z,25.87
2018-11-10T11:30:54.703Z,25.07
2018-11-10T11:33:27.963Z,24.90
2018-11-10T11:35:58.481Z,25.57
2018-11-10T11:38:29.550Z,25.83
2018-11-10T11:41:00.414Z,26.53
2018-11-10T11:43:30.956Z,24.63
2018-11-10T11:46:01.383Z,25.17
2018-11-10T11:48:32.282Z,25.20
2018-11-10T11:51:03.535Z,24.03
2018-11-10T11:53:34.020Z,25.40
2018-11-10T11:56:04.847Z,26.87
2018-11-10T11:58:38.715Z,23.73
2018-11-10T12:01:09.147Z,24.83
2018-11-10T12:03:39.961Z,24.70
2018-11-10T12:06:10.369Z,24.73
2018-11-10T12:08:42.009Z,23.50
2018-11-10T12:11:11.533Z,23.43
2018-11-10T12:13:41.420Z,24.37
2018-11-10T12:16:12.605Z,24.07
2018-11-10T12:18:43.194Z,24.50
2018-11-10T12:21:13.326Z,25.70
2018-11-10T12:23:44.670Z,24.63
2018-11-10T12:26:14.949Z,23.40
2018-11-10T12:28:45.929Z,24.50
2018-11-10T12:31:16.336Z,24.83
2018-11-10T12:33:46.115Z,23.70
2018-11-10T12:36:17.705Z,22.17
2018-11-10T12:38:49.383Z,22.20
2018-11-10T12:41:19.465Z,22.83
2018-11-10T12:43:49.511Z,23.13
2018-11-10T12:46:20.449Z,26.13
2018-11-10T12:48:51.431Z,24.93
2018-11-10T12:51:21.590Z,24.47
2018-11-10T12:53:52.469Z,23.43
2018-11-10T12:56:22.977Z,23.90
2018-11-10T12:58:53.301Z,23.70
2018-11-10T13:01:23.678Z,21.50
2018-11-10T13:03:53.832Z,23.60
2018-11-10T13:06:23.950Z,24.73
2018-11-10T13:08:55.253Z,21.53
2018-11-10T13:11:25.430Z,23.17
2018-11-10T13:13:55.344Z,22.43
2018-11-10T13:16:25.939Z,20.93
2018-11-10T13:18:57.705Z,21.93
2018-11-10T13:21:28.090Z,21.10
2018-11-10T13:23:57.977Z,21.00
2018-11-10T13:26:28.042Z,20.10
2018-11-10T13:28:58.997Z,22.00
2018-11-10T13:31:29.980Z,19.50
2018-11-10T13:34:00.584Z,20.53
2018-11-10T13:36:31.342Z,20.03
2018-11-10T13:39:02.437Z,21.60
2018-11-10T13:41:34.303Z,19.97
2018-11-10T13:44:06.582Z,19.73
2018-11-10T13:46:36.924Z,21.43
2018-11-10T13:49:07.719Z,18.23
2018-11-10T13:51:38.814Z,18.67
2018-11-10T13:54:10.039Z,20.00
2018-11-10T13:56:40.648Z,20.23
2018-11-10T13:59:11.821Z,20.20
2018-11-10T14:01:42.462Z,19.30
2018-11-10T14:04:14.082Z,17.80
2018-11-10T14:06:44.649Z,19.00
2018-11-10T14:09:15.983Z,17.87
2018-11-10T14:11:47.715Z,17.10
2018-11-10T14:14:19.614Z,18.20
2018-11-10T14:16:50.307Z,17.20
2018-11-10T14:19:20.846Z,16.67
2018-11-10T14:21:51.480Z,16.97
2018-11-10T14:24:22.959Z,17.70
2018-11-10T14:26:52.890Z,18.20
2018-11-10T14:29:23.661Z,17.70
2018-11-10T14:31:54.450Z,16.50
2018-11-10T14:34:25.063Z,17.67
2018-11-10T14:36:55.290Z,17.63
2018-11-10T14:39:27.316Z,17.23
2018-11-10T14:41:58.949Z,17.57
2018-11-10T14:44:31.561Z,16.27
2018-11-10T14:47:03.453Z,16.47
2018-11-10T14:49:35.872Z,16.90
2018-11-10T14:52:06.551Z,17.73
2018-11-10T14:54:36.735Z,16.53
2018-11-10T14:57:07.000Z,16.77
2018-11-10T14:59:39.745Z,18.10
2018-11-10T15:02:10.358Z,16.63
2018-11-10T15:04:40.690Z,15.43
2018-11-10T15:07:10.806Z,16.50
2018-11-10T15:09:42.701Z,17.30
2018-11-10T15:12:13.638Z,17.27
2018-11-10T15:14:45.397Z,16.20
2018-11-10T15:17:17.438Z,15.87
2018-11-10T15:19:49.172Z,16.63
2018-11-10T15:22:19.864Z,15.80
2018-11-10T15:24:54.070Z,16.17
2018-11-10T15:27:26.289Z,15.13
2018-11-10T15:29:58.481Z,15.57
2018-11-10T15:32:29.923Z,13.83
2018-11-10T15:35:01.121Z,16.20
2018-11-10T15:37:33.379Z,13.50
2018-11-10T15:40:06.911Z,14.03
2018-11-10T15:42:37.580Z,13.53
2018-11-10T15:45:10.030Z,13.17
2018-11-10T15:47:42.527Z,13.80
2018-11-10T15:50:15.247Z,15.13
2018-11-10T15:52:46.964Z,14.67
2018-11-10T15:55:19.740Z,13.97
2018-11-10T15:57:50.954Z,15.53
2018-11-10T16:00:23.389Z,13.90
2018-11-10T16:02:54.007Z,14.00
2018-11-10T16:05:25.572Z,15.50
2018-11-10T16:07:56.941Z,13.50
2018-11-10T16:10:28.904Z,14.33
2018-11-10T16:13:00.352Z,13.67
2018-11-10T16:15:32.747Z,15.87
2018-11-10T16:18:04.897Z,15.33
2018-11-10T16:20:36.471Z,15.10
2018-11-10T16:23:07.971Z,15.00
2018-11-10T16:25:39.648Z,14.33
2018-11-10T16:28:11.304Z,14.57
2018-11-10T16:30:43.476Z,16.10
2018-11-10T16:33:15.287Z,15.43
2018-11-10T16:35:47.580Z,14.33
2018-11-10T16:38:18.905Z,15.90
2018-11-10T16:40:51.003Z,14.90
2018-11-10T16:43:22.024Z,13.77
2018-11-10T16:45:54.332Z,13.63
2018-11-10T16:48:26.341Z,13.20
2018-11-10T16:50:59.087Z,14.47
2018-11-10T16:53:31.950Z,13.47
2018-11-10T16:56:04.423Z,12.70
2018-11-10T16:58:36.875Z,14.97
2018-11-10T17:01:09.554Z,13.07
2018-11-10T17:03:41.144Z,14.17
2018-11-10T17:06:13.832Z,13.70
2018-11-10T17:08:44.794Z,13.73
2018-11-10T17:11:18.593Z,15.37
2018-11-10T17:13:50.378Z,14.70
2018-11-10T17:16:22.585Z,13.80
2018-11-10T17:18:54.135Z,13.83
2018-11-10T17:21:27.105Z,14.43
2018-11-10T17:23:58.850Z,13.50
2018-11-10T17:26:31.154Z,13.30
2018-11-10T17:29:02.796Z,12.50
2018-11-10T17:31:35.842Z,13.53
2018-11-10T17:34:08.347Z,14.00
2018-11-10T17:36:40.709Z,13.30
2018-11-10T17:39:13.476Z,13.97
2018-11-10T17:41:46.605Z,13.90
2018-11-10T17:44:17.960Z,14.43
2018-11-10T17:46:50.707Z,14.03
2018-11-10T17:49:22.216Z,14.70
2018-11-10T17:51:53.932Z,12.83
2018-11-10T17:54:24.302Z,13.07
2018-11-10T17:56:56.507Z,12.83
2018-11-10T17:59:28.036Z,13.93
2018-11-10T18:01:59.881Z,13.60
2018-11-10T18:04:31.025Z,13.90
2018-11-10T18:07:02.835Z,12.70
2018-11-10T18:09:33.708Z,13.13
2018-11-10T18:12:05.461Z,13.40
2018-11-10T18:14:36.506Z,13.47
2018-11-10T18:17:08.474Z,13.40
2018-11-10T18:19:39.595Z,13.97
2018-11-10T18:22:11.341Z,13.80
2018-11-10T18:24:42.969Z,13.37
2018-11-10T18:27:14.938Z,13.60
2018-11-10T18:29:46.478Z,13.10
2018-11-10T18:32:18.412Z,12.67
2018-11-10T18:34:50.477Z,11.90
2018-11-10T18:37:22.275Z,11.20
2018-11-10T18:39:54.336Z,12.00
2018-11-10T18:42:25.941Z,14.30
2018-11-10T18:44:57.611Z,12.47
2018-11-10T18:47:29.475Z,10.47
2018-11-10T18:50:00.232Z,12.93
2018-11-10T18:52:31.825Z,11.07
2018-11-10T18:55:03.745Z,11.97
2018-11-10T18:57:34.915Z,12.40
2018-11-10T19:00:06.990Z,12.30
2018-11-10T19:02:39.428Z,12.00
2018-11-10T19:05:12.532Z,11.63
2018-11-10T19:07:43.432Z,11.27
2018-11-10T19:10:16.001Z,11.83
2018-11-10T19:12:48.182Z,11.60
2018-11-10T19:15:20.967Z,11.90
2018-11-10T19:17:52.520Z,11.13
2018-11-10T19:20:24.390Z,13.57
2018-11-10T19:22:56.704Z,12.00
2018-11-10T19:25:28.247Z,11.77
2018-11-10T19:27:59.522Z,12.80
2018-11-10T19:30:30.198Z,11.87
2018-11-10T19:33:01.559Z,11.73
2018-11-10T19:35:32.776Z,10.77
2018-11-10T19:38:03.911Z,11.77
2018-11-10T19:40:34.956Z,10.07
2018-11-10T19:43:06.376Z,10.93
2018-11-10T19:45:37.705Z,10.10
2018-11-10T19:48:09.473Z,10.40
2018-11-10T19:50:40.511Z,11.13
2018-11-10T19:53:12.129Z,10.80
2018-11-10T19:55:44.128Z,10.23
2018-11-10T19:58:15.673Z,10.83
2018-11-10T20:00:47.582Z,9.33
2018-11-10T20:03:19.649Z,8.80
2018-11-10T20:05:51.158Z,9.93
2018-11-10T20:08:22.711Z,10.73
2018-11-10T20:10:54.742Z,9.60
2018-11-10T20:13:26.180Z,11.00
2018-11-10T20:15:57.619Z,10.50
2018-11-10T20:18:28.170Z,10.50
2018-11-10T20:20:59.856Z,10.13
2018-11-10T20:23:31.093Z,10.50
2018-11-10T20:26:02.909Z,10.13
2018-11-10T20:28:34.162Z,9.67
2018-11-10T20:31:04.891Z,11.10
2018-11-10T20:33:36.435Z,12.03
2018-11-10T20:36:07.587Z,11.67
2018-11-10T20:38:40.521Z,12.10
2018-11-10T20:41:13.145Z,11.27
2018-11-10T20:43:44.794Z,11.43
2018-11-10T20:46:16.272Z,11.40
2018-11-10T20:48:46.775Z,10.87
2018-11-10T20:51:17.392Z,10.73
2018-11-10T20:53:48.741Z,10.90
2018-11-10T20:56:20.626Z,9.80
2018-11-10T20:58:53.365Z,10.87
2018-11-10T21:01:25.120Z,10.50
2018-11-10T21:03:56.695Z,9.40
2018-11-10T21:06:28.074Z,9.83
2018-11-10T21:09:00.130Z,9.50
2018-11-10T21:11:32.206Z,9.60
2018-11-10T21:14:02.974Z,9.67
2018-11-10T21:16:34.819Z,9.37
2018-11-10T21:19:06.011Z,9.27
2018-11-10T21:21:37.468Z,8.90
2018-11-10T21:24:09.237Z,9.70
2018-11-10T21:26:41.036Z,9.70
2018-11-10T21:29:13.005Z,8.80
2018-11-10T21:31:44.741Z,9.00
2018-11-10T21:34:16.823Z,10.50
2018-11-10T21:36:47.983Z,11.87
2018-11-10T21:39:19.390Z,10.60
2018-11-10T21:41:50.785Z,10.53
2018-11-10T21:44:22.207Z,11.80
2018-11-10T21:46:54.212Z,10.80
2018-11-10T21:49:25.841Z,10.77
2018-11-10T21:51:57.173Z,11.73
2018-11-10T21:54:28.166Z,11.27
2018-11-10T21:57:00.069Z,11.77
2018-11-10T21:59:31.533Z,11.10
2018-11-10T22:02:03.462Z,12.10
2018-11-10T22:04:35.459Z,12.50
2018-11-10T22:07:07.318Z,12.00
2018-11-10T22:09:38.613Z,11.23
2018-11-10T22:12:09.568Z,12.13
2018-11-10T22:14:40.688Z,11.13
2018-11-10T22:17:13.189Z,10.30
2018-11-10T22:19:43.983Z,9.83
2018-11-10T22:22:15.550Z,10.80
2018-11-10T22:24:46.450Z,10.53
2018-11-10T22:27:17.554Z,10.40
2018-11-10T22:29:48.811Z,11.07
2018-11-10T22:32:20.160Z,10.90
2018-11-10T22:34:51.046Z,10.90
2018-11-10T22:37:22.423Z,10.80
2018-11-10T22:39:53.273Z,10.50
2018-11-10T22:42:24.625Z,11.30
2018-11-10T22:44:55.594Z,10.80
2018-11-10T22:47:26.985Z,10.80
2018-11-10T22:49:58.015Z,11.73
2018-11-10T22:52:29.685Z,12.17
2018-11-10T22:55:00.761Z,11.97
2018-11-10T22:57:33.458Z,11.70
2018-11-10T23:00:05.450Z,13.07
2018-11-10T23:02:37.546Z,12.73
2018-11-10T23:05:09.463Z,15.53
2018-11-10T23:07:42.148Z,13.63
2018-11-10T23:10:14.755Z,13.87
2018-11-10T23:12:47.283Z,13.90
2018-11-10T23:15:18.313Z,13.10
2018-11-10T23:17:49.535Z,12.70
2018-11-10T23:20:20.681Z,12.77
2018-11-10T23:22:52.859Z,12.30
2018-11-10T23:25:25.372Z,14.40
2018-11-10T23:27:56.989Z,14.47
2018-11-10T23:30:28.430Z,11.60
2018-11-10T23:33:01.114Z,13.23
2018-11-10T23:35:32.479Z,13.30
2018-11-10T23:38:03.555Z,14.00
2018-11-10T23:40:35.437Z,12.87
2018-11-10T23:43:07.450Z,12.40
2018-11-10T23:45:39.439Z,14.13
2018-11-10T23:48:11.202Z,12.90
2018-11-10T23:50:42.733Z,12.10
2018-11-10T23:53:14.876Z,15.37
2018-11-10T23:55:45.804Z,12.77
2018-11-10T23:58:16.979Z,12.40
